sensor_id;sensor_type;location;lat;lon;timestamp;pressure;altitude;pressure_sealevel;temperature
68342;BMP280;55668;52.310;21.066;2022-07-24T00:00:41;100780.0;;;20.3
68342;BMP280;55668;52.310;21.066;2022-07-24T00:31:34;100780.0;;;20.1
68342;BMP280;55668;52.310;21.066;2022-07-24T00:45:27;100780.0;;;20.0
68342;BMP280;55668;52.310;21.066;2022-07-24T01:35:17;100840.0;;;19.6
68342;BMP280;55668;52.310;21.066;2022-07-24T01:46:53;100850.0;;;19.1
68342;BMP280;55668;52.310;21.066;2022-07-24T02:04:07;100840.0;;;18.8
68342;BMP280;55668;52.310;21.066;2022-07-24T02:17:12;100850.0;;;18.6
68342;BMP280;55668;52.310;21.066;2022-07-24T02:32:58;100860.0;;;18.4
68342;BMP280;55668;52.310;21.066;2022-07-24T02:48:23;100850.0;;;18.3
68342;BMP280;55668;52.310;21.066;2022-07-24T03:08:44;100860.0;;;18.2
68342;BMP280;55668;52.310;21.066;2022-07-24T03:20:33;100870.0;;;18.0
68342;BMP280;55668;52.310;21.066;2022-07-24T03:34:00;100880.0;;;17.9
68342;BMP280;55668;52.310;21.066;2022-07-24T03:49:48;100890.0;;;17.8
68342;BMP280;55668;52.310;21.066;2022-07-24T04:06:20;100900.0;;;17.7
68342;BMP280;55668;52.310;21.066;2022-07-24T04:20:04;100900.0;;;17.5
68342;BMP280;55668;52.310;21.066;2022-07-24T04:37:17;100910.0;;;17.7
68342;BMP280;55668;52.310;21.066;2022-07-24T04:51:23;100910.0;;;18.0
68342;BMP280;55668;52.310;21.066;2022-07-24T05:07:33;100920.0;;;19.9
68342;BMP280;55668;52.310;21.066;2022-07-24T05:23:12;100930.0;;;23.1
68342;BMP280;55668;52.310;21.066;2022-07-24T05:37:13;100940.0;;;26.4
68342;BMP280;55668;52.310;21.066;2022-07-24T05:52:34;100940.0;;;26.2
68342;BMP280;55668;52.310;21.066;2022-07-24T06:08:13;100950.0;;;29.0
68342;BMP280;55668;52.310;21.066;2022-07-24T06:25:43;100950.0;;;31.5
68342;BMP280;55668;52.310;21.066;2022-07-24T06:40:12;100950.0;;;33.3
68342;BMP280;55668;52.310;21.066;2022-07-24T06:54:44;100950.0;;;31.0
68342;BMP280;55668;52.310;21.066;2022-07-24T07:25:46;100960.0;;;24.5
68342;BMP280;55668;52.310;21.066;2022-07-24T07:40:33;100970.0;;;23.3
68342;BMP280;55668;52.310;21.066;2022-07-24T07:55:17;100980.0;;;23.2
68342;BMP280;55668;52.310;21.066;2022-07-24T08:15:03;100990.0;;;23.7
68342;BMP280;55668;52.310;21.066;2022-07-24T08:24:38;101000.0;;;25.7
68342;BMP280;55668;52.310;21.066;2022-07-24T08:41:08;101010.0;;;24.3
68342;BMP280;55668;52.310;21.066;2022-07-24T08:50:00;101010.0;;;22.6
68342;BMP280;55668;52.310;21.066;2022-07-24T09:04:58;101020.0;;;22.5
68342;BMP280;55668;52.310;21.066;2022-07-24T09:22:16;101030.0;;;21.9
68342;BMP280;55668;52.310;21.066;2022-07-24T09:35:05;101030.0;;;22.1
68342;BMP280;55668;52.310;21.066;2022-07-24T09:51:32;101050.0;;;21.6
68342;BMP280;55668;52.310;21.066;2022-07-24T10:05:44;101050.0;;;22.1
68342;BMP280;55668;52.310;21.066;2022-07-24T10:23:21;101070.0;;;22.2
68342;BMP280;55668;52.310;21.066;2022-07-24T10:41:02;101070.0;;;22.3
68342;BMP280;55668;52.310;21.066;2022-07-24T11:09:55;101090.0;;;22.6
68342;BMP280;55668;52.310;21.066;2022-07-24T11:24:32;101090.0;;;22.7
68342;BMP280;55668;52.310;21.066;2022-07-24T11:38:03;101100.0;;;22.6
68342;BMP280;55668;52.310;21.066;2022-07-24T11:55:23;101100.0;;;22.3
68342;BMP280;55668;52.310;21.066;2022-07-24T12:11:19;101110.0;;;22.4
68342;BMP280;55668;52.310;21.066;2022-07-24T12:39:21;101100.0;;;22.2
68342;BMP280;55668;52.310;21.066;2022-07-24T12:56:41;101100.0;;;22.0
68342;BMP280;55668;52.310;21.066;2022-07-24T13:10:13;101100.0;;;21.9
68342;BMP280;55668;52.310;21.066;2022-07-24T13:41:49;101070.0;;;22.0
68342;BMP280;55668;52.310;21.066;2022-07-24T13:56:36;101070.0;;;22.1
68342;BMP280;55668;52.310;21.066;2022-07-24T14:12:55;101050.0;;;22.3
68342;BMP280;55668;52.310;21.066;2022-07-24T14:42:56;101040.0;;;22.5
68342;BMP280;55668;52.310;21.066;2022-07-24T15:35:06;101020.0;;;22.6
68342;BMP280;55668;52.310;21.066;2022-07-24T15:43:55;101010.0;;;22.7
68342;BMP280;55668;52.310;21.066;2022-07-24T16:01:08;101010.0;;;22.6
68342;BMP280;55668;52.310;21.066;2022-07-24T17:00:26;100990.0;;;22.2
68342;BMP280;55668;52.310;21.066;2022-07-24T17:17:13;100990.0;;;22.0
68342;BMP280;55668;52.310;21.066;2022-07-24T17:34:03;100990.0;;;21.8
68342;BMP280;55668;52.310;21.066;2022-07-24T17:49:58;101000.0;;;21.5
68342;BMP280;55668;52.310;21.066;2022-07-24T18:03:46;101000.0;;;21.3
68342;BMP280;55668;52.310;21.066;2022-07-24T18:17:33;101000.0;;;21.0
68342;BMP280;55668;52.310;21.066;2022-07-24T18:32:43;101000.0;;;20.8
68342;BMP280;55668;52.310;21.066;2022-07-24T18:54:15;101010.0;;;20.4
68342;BMP280;55668;52.310;21.066;2022-07-24T19:04:02;101020.0;;;20.0
68342;BMP280;55668;52.310;21.066;2022-07-24T19:19:35;101040.0;;;19.5
68342;BMP280;55668;52.310;21.066;2022-07-24T19:35:28;101040.0;;;19.0
68342;BMP280;55668;52.310;21.066;2022-07-24T20:04:53;101060.0;;;18.5
68342;BMP280;55668;52.310;21.066;2022-07-24T20:23:29;101060.0;;;18.3
68342;BMP280;55668;52.310;21.066;2022-07-24T20:36:36;101070.0;;;17.9
68342;BMP280;55668;52.310;21.066;2022-07-24T20:52:09;101070.0;;;17.8
68342;BMP280;55668;52.310;21.066;2022-07-24T21:10:04;101080.0;;;17.7
68342;BMP280;55668;52.310;21.066;2022-07-24T21:21:29;101080.0;;;17.6
68342;BMP280;55668;52.310;21.066;2022-07-24T21:52:38;101090.0;;;17.4
68342;BMP280;55668;52.310;21.066;2022-07-24T22:07:33;101100.0;;;17.2
68342;BMP280;55668;52.310;21.066;2022-07-24T22:45:46;101110.0;;;16.9
68342;BMP280;55668;52.310;21.066;2022-07-24T22:58:44;101110.0;;;16.8
68342;BMP280;55668;52.310;21.066;2022-07-24T23:09:59;101100.0;;;16.7
68342;BMP280;55668;52.310;21.066;2022-07-24T23:25:19;101100.0;;;16.5
68342;BMP280;55668;52.310;21.066;2022-07-24T23:39:34;101100.0;;;16.4
68342;BMP280;55668;52.310;21.066;2022-07-24T23:55:55;101110.0;;;16.3
